Time;durP1;ratioP1;P1;durP2;ratioP2;P2;SDS_P1;SDS_P2;PMS_P1;PMS_P2;Temp;Humidity;BMP_temperature;BMP_pressure;BME280_temperature;BME280_humidity;BME280_pressure;Samples;Min_cycle;Max_cycle;Signal;HPM_P1;HPM_P2
2021/05/01 00:00:58;;;;;;;9.15;4.05;;;;;;;7.08;63.43;101262.81;5034047;28;20053;-47
2021/05/01 00:03:24;;;;;;;9.00;4.43;;;;;;;7.08;63.27;101262.00;5014654;28;20081;-47
2021/05/01 00:05:51;;;;;;;7.05;4.03;;;;;;;7.09;63.20;101263.66;5013599;28;20466;-46
2021/05/01 00:08:17;;;;;;;6.05;3.92;;;;;;;7.08;63.37;101262.00;5014047;28;20130;-47
2021/05/01 00:10:44;;;;;;;4.95;3.85;;;;;;;7.05;63.27;101252.41;5012758;28;20046;-46
2021/05/01 00:13:11;;;;;;;5.95;3.95;;;;;;;7.07;63.22;101260.41;5013248;28;20428;-47
2021/05/01 00:15:37;;;;;;;6.22;4.07;;;;;;;7.10;63.48;101259.75;5013780;28;20053;-46
2021/05/01 00:18:04;;;;;;;15.13;4.65;;;;;;;7.18;63.31;101261.78;5013214;28;20136;-47
2021/05/01 00:20:31;;;;;;;4.47;3.20;;;;;;;7.15;63.62;101268.72;5012845;28;20096;-46
2021/05/01 00:22:57;;;;;;;11.40;4.88;;;;;;;7.27;63.53;101265.44;5012027;28;20138;-47
2021/05/01 00:25:24;;;;;;;5.38;3.83;;;;;;;7.38;63.21;101264.06;5027083;28;20073;-47
2021/05/01 00:27:50;;;;;;;6.85;4.25;;;;;;;7.49;63.01;101257.19;5032521;28;20108;-46
2021/05/01 00:30:17;;;;;;;8.75;3.90;;;;;;;7.62;62.85;101261.03;5023432;28;20050;-47
2021/05/01 00:32:43;;;;;;;6.53;3.95;;;;;;;7.62;63.05;101255.50;5032040;28;20077;-46
2021/05/01 00:35:10;;;;;;;10.45;3.85;;;;;;;7.59;63.12;101259.72;5032064;28;20136;-47
2021/05/01 00:37:36;;;;;;;5.85;3.72;;;;;;;7.58;63.27;101254.50;5013558;28;20129;-46
2021/05/01 00:40:04;;;;;;;6.35;3.83;;;;;;;7.58;63.51;101252.56;5013650;28;20078;-48
2021/05/01 00:42:31;;;;;;;6.28;3.63;;;;;;;7.60;63.74;101253.06;5010673;28;20081;-47
2021/05/01 00:44:57;;;;;;;5.57;3.85;;;;;;;7.61;63.59;101248.34;5019015;28;20049;-46
2021/05/01 00:47:24;;;;;;;6.53;4.13;;;;;;;7.58;63.92;101255.31;5012967;28;20057;-46
2021/05/01 00:49:50;;;;;;;5.78;3.95;;;;;;;7.70;63.49;101249.25;5016642;28;20096;-48
2021/05/01 00:52:17;;;;;;;10.00;4.57;;;;;;;7.64;63.60;101253.25;5030560;28;20045;-47
2021/05/01 00:54:43;;;;;;;6.75;4.30;;;;;;;7.58;63.57;101247.03;5029062;28;20834;-47
2021/05/01 00:57:10;;;;;;;7.80;4.00;;;;;;;7.54;63.75;101243.31;5030656;28;20462;-46
2021/05/01 00:59:38;;;;;;;6.47;4.00;;;;;;;7.56;63.76;101246.56;5027008;28;20045;-47
2021/05/01 01:02:05;;;;;;;7.05;4.05;;;;;;;7.47;64.10;101237.41;5032361;28;20092;-48
2021/05/01 01:04:31;;;;;;;5.65;3.80;;;;;;;7.48;63.92;101244.53;5032695;28;20048;-48
2021/05/01 01:06:58;;;;;;;7.22;4.28;;;;;;;7.39;64.11;101238.13;5018846;28;20041;-46
2021/05/01 01:09:24;;;;;;;6.30;4.10;;;;;;;7.29;64.40;101241.13;5012808;28;20054;-48
2021/05/01 01:11:50;;;;;;;6.85;4.57;;;;;;;7.25;64.45;101232.66;5013028;28;20486;-47
2021/05/01 01:14:17;;;;;;;10.27;6.22;;;;;;;7.16;64.44;101230.97;5012458;28;20120;-47
2021/05/01 01:16:47;;;;;;;8.48;5.28;;;;;;;7.10;64.54;101232.22;4993060;28;20481;-47
2021/05/01 01:19:14;;;;;;;9.75;6.03;;;;;;;7.13;64.57;101231.59;4991450;28;20455;-45
2021/05/01 01:21:42;;;;;;;9.52;5.72;;;;;;;7.19;64.34;101235.88;4993223;28;20133;-46
2021/05/01 01:24:10;;;;;;;12.88;7.18;;;;;;;7.17;64.30;101233.44;4998501;28;20092;-46
2021/05/01 01:26:37;;;;;;;12.05;6.70;;;;;;;7.06;64.42;101231.22;5024588;28;20073;-51
2021/05/01 01:29:05;;;;;;;9.15;6.50;;;;;;;6.97;64.61;101231.13;5012139;28;20129;-45
2021/05/01 01:31:31;;;;;;;10.30;6.05;;;;;;;6.89;64.88;101231.03;5018581;28;20128;-46
2021/05/01 01:33:59;;;;;;;12.25;6.93;;;;;;;6.81;64.93;101229.00;5012336;28;20041;-45
2021/05/01 01:36:26;;;;;;;14.93;8.65;;;;;;;6.76;65.06;101227.19;5012363;28;20045;-45
2021/05/01 01:38:53;;;;;;;10.98;7.00;;;;;;;6.70;64.99;101229.25;5021101;28;20132;-46
2021/05/01 01:41:21;;;;;;;14.07;8.02;;;;;;;6.66;65.15;101231.00;4994689;28;20538;-46
2021/05/01 01:43:47;;;;;;;15.15;8.07;;;;;;;6.61;65.61;101228.34;5011702;28;20088;-47
2021/05/01 01:46:14;;;;;;;11.32;6.82;;;;;;;6.57;65.53;101229.25;5011724;28;20049;-49
2021/05/01 01:48:40;;;;;;;15.93;7.95;;;;;;;6.59;65.82;101233.31;5011749;28;20038;-46
2021/05/01 01:51:07;;;;;;;9.68;7.88;;;;;;;6.57;65.50;101219.06;5016009;28;20064;-46
2021/05/01 01:53:33;;;;;;;14.55;9.10;;;;;;;6.57;65.46;101230.06;5030181;28;20041;-47
2021/05/01 01:55:59;;;;;;;12.57;9.50;;;;;;;6.57;65.24;101229.25;5030643;28;20128;-45
2021/05/01 01:58:26;;;;;;;15.57;8.73;;;;;;;6.54;65.44;101224.38;5028720;28;20160;-47
2021/05/01 02:00:54;;;;;;;14.40;9.00;;;;;;;6.52;65.63;101219.16;5029184;28;20053;-48
2021/05/01 02:03:20;;;;;;;14.43;8.65;;;;;;;6.50;65.54;101235.16;5029080;28;20108;-46
2021/05/01 02:05:47;;;;;;;12.20;8.15;;;;;;;6.47;65.93;101221.22;5026362;28;20073;-46
2021/05/01 02:08:13;;;;;;;10.60;7.47;;;;;;;6.45;65.66;101229.78;5011508;28;20077;-48
2021/05/01 02:10:41;;;;;;;11.48;8.13;;;;;;;6.40;65.88;101224.38;5011320;28;20050;-50
2021/05/01 02:13:08;;;;;;;12.77;7.88;;;;;;;6.37;65.56;101224.16;5011474;28;20136;-47
2021/05/01 02:15:35;;;;;;;11.73;7.60;;;;;;;6.36;65.77;101217.84;5009982;28;20061;-49
2021/05/01 02:18:04;;;;;;;12.40;7.15;;;;;;;6.34;65.59;101220.09;5011440;28;20050;-50
2021/05/01 02:20:34;;;;;;;11.68;7.85;;;;;;;6.33;65.94;101223.94;5011515;28;20112;-45
2021/05/01 02:23:01;;;;;;;11.35;7.00;;;;;;;6.35;65.89;101230.00;5010461;28;20077;-49
2021/05/01 02:25:27;;;;;;;10.65;6.60;;;;;;;6.34;66.02;101224.78;5011433;28;20065;-46
2021/05/01 02:27:55;;;;;;;10.55;6.45;;;;;;;6.29;65.80;101228.44;5010133;28;20451;-47
2021/05/01 02:30:24;;;;;;;14.63;7.03;;;;;;;6.24;65.86;101225.81;5011504;28;20120;-46
2021/05/01 02:32:51;;;;;;;9.60;6.07;;;;;;;6.14;66.20;101213.03;5030709;28;20076;-46
2021/05/01 02:35:21;;;;;;;8.25;5.85;;;;;;;6.21;66.25;101229.16;5028910;28;20116;-50
2021/05/01 02:37:48;;;;;;;8.90;5.30;;;;;;;6.19;65.97;101217.66;5013881;28;20064;-46
2021/05/01 02:40:16;;;;;;;8.30;5.82;;;;;;;6.18;65.83;101221.50;5020892;28;20128;-48
2021/05/01 02:42:44;;;;;;;9.07;6.72;;;;;;;6.16;66.00;101221.00;5010691;28;20053;-48
2021/05/01 02:45:14;;;;;;;8.13;6.00;;;;;;;6.05;66.37;101219.56;5011146;28;20069;-46
2021/05/01 02:47:41;;;;;;;8.55;5.90;;;;;;;6.00;66.34;101220.47;5024700;28;20053;-47
2021/05/01 02:50:09;;;;;;;6.57;4.57;;;;;;;5.98;66.28;101216.41;5014978;28;20553;-49
2021/05/01 02:52:35;;;;;;;7.30;4.90;;;;;;;5.95;66.61;101208.75;5027609;28;20555;-50
2021/05/01 02:55:02;;;;;;;7.28;4.72;;;;;;;5.95;66.23;101212.34;5001585;28;20125;-47
2021/05/01 02:57:29;;;;;;;8.20;4.45;;;;;;;5.92;66.26;101217.59;5013968;28;20116;-51
2021/05/01 03:00:01;;;;;;;11.35;5.60;;;;;;;5.90;66.35;101215.19;5030154;28;20494;-50
2021/05/01 03:02:28;;;;;;;11.63;5.60;;;;;;;5.86;66.37;101210.56;5030556;28;20088;-48
2021/05/01 03:04:55;;;;;;;11.00;5.15;;;;;;;5.79;66.75;101202.69;5031733;28;20047;-48
2021/05/01 03:07:24;;;;;;;9.98;6.22;;;;;;;5.75;66.58;101214.56;5034587;28;20045;-48
2021/05/01 03:09:51;;;;;;;7.78;5.28;;;;;;;5.75;66.74;101203.59;5033992;28;20156;-47
2021/05/01 03:12:18;;;;;;;13.20;5.45;;;;;;;5.71;66.62;101205.31;5034101;28;20495;-51
2021/05/01 03:14:47;;;;;;;7.03;5.03;;;;;;;5.71;66.87;101199.81;5033595;28;20041;-46
2021/05/01 03:17:14;;;;;;;8.45;4.93;;;;;;;5.69;66.73;101202.06;5034708;28;20103;-46
2021/05/01 03:19:42;;;;;;;10.50;6.32;;;;;;;5.70;66.89;101203.69;5034293;28;20140;-50
2021/05/01 03:22:08;;;;;;;9.98;5.70;;;;;;;5.70;66.72;101199.00;5034552;28;20049;-48
2021/05/01 03:24:36;;;;;;;9.07;5.38;;;;;;;5.72;66.58;101205.00;5033934;28;20108;-47
2021/05/01 03:27:03;;;;;;;8.77;5.38;;;;;;;5.72;66.82;101201.47;5033563;28;20431;-47
2021/05/01 03:29:31;;;;;;;7.28;5.85;;;;;;;5.71;66.75;101194.34;5016783;28;20557;-48
2021/05/01 03:31:57;;;;;;;8.15;5.90;;;;;;;5.70;66.40;101192.69;5033750;28;20529;-48
2021/05/01 03:34:25;;;;;;;10.18;6.25;;;;;;;5.69;66.44;101191.06;5034284;28;20064;-49
2021/05/01 03:36:51;;;;;;;7.45;5.85;;;;;;;5.69;66.28;101191.06;5034135;28;20041;-47
2021/05/01 03:39:18;;;;;;;11.20;5.95;;;;;;;5.69;66.26;101196.56;5033843;28;20143;-46
2021/05/01 03:41:44;;;;;;;11.25;5.68;;;;;;;5.62;66.40;101198.88;5034305;28;20128;-49
2021/05/01 03:44:12;;;;;;;7.72;5.13;;;;;;;5.57;66.69;101193.47;5033805;28;20121;-49
2021/05/01 03:46:38;;;;;;;10.52;5.90;;;;;;;5.58;66.90;101197.84;5033610;28;20041;-47
2021/05/01 03:49:04;;;;;;;10.60;5.60;;;;;;;5.60;66.71;101192.88;5041617;28;20126;-47
2021/05/01 03:51:31;;;;;;;8.30;5.07;;;;;;;5.62;66.61;101191.44;5045722;28;20076;-45
2021/05/01 03:53:57;;;;;;;11.00;5.53;;;;;;;5.60;66.59;101184.63;5033694;28;20100;-46
2021/05/01 03:56:23;;;;;;;10.02;5.88;;;;;;;5.62;66.83;101187.88;5015549;28;20140;-48
2021/05/01 03:58:49;;;;;;;7.47;5.15;;;;;;;5.69;66.76;101199.31;5033603;28;20060;-46
2021/05/01 04:01:16;;;;;;;6.88;4.95;;;;;;;5.65;66.63;101190.84;5033876;28;20125;-47
2021/05/01 04:03:42;;;;;;;8.20;5.68;;;;;;;5.70;66.64;101193.50;5034235;28;20128;-47
2021/05/01 04:06:08;;;;;;;9.93;5.00;;;;;;;5.69;66.81;101189.16;5041779;28;20051;-50
2021/05/01 04:08:38;;;;;;;8.73;5.00;;;;;;;5.71;66.65;101197.06;5033542;28;20053;-48
2021/05/01 04:11:05;;;;;;;9.07;5.13;;;;;;;5.68;67.17;101197.69;5033597;28;20079;-46
2021/05/01 04:13:32;;;;;;;9.02;5.40;;;;;;;5.70;66.94;101182.53;5033616;28;20045;-46
2021/05/01 04:15:59;;;;;;;9.20;5.22;;;;;;;5.68;66.79;101184.75;5032796;28;20574;-47
2021/05/01 04:18:26;;;;;;;10.15;4.90;;;;;;;5.73;66.85;101194.84;5033395;28;20065;-45
2021/05/01 04:20:52;;;;;;;8.65;4.60;;;;;;;5.79;66.96;101194.47;5033440;28;20866;-47
2021/05/01 04:23:19;;;;;;;7.30;5.00;;;;;;;5.85;66.59;101189.72;5050364;28;20049;-45
2021/05/01 04:25:45;;;;;;;10.15;5.07;;;;;;;5.88;66.43;101183.59;5036137;28;20103;-46
2021/05/01 04:28:11;;;;;;;7.47;4.55;;;;;;;5.90;66.45;101192.38;5033154;28;20148;-49
2021/05/01 04:30:40;;;;;;;9.30;5.35;;;;;;;5.95;65.94;101195.03;5033196;28;20052;-50
2021/05/01 04:33:09;;;;;;;9.38;6.25;;;;;;;5.98;66.04;101200.72;5033005;28;20053;-49
2021/05/01 04:35:36;;;;;;;9.15;6.28;;;;;;;5.87;65.98;101193.78;5032949;28;20056;-46
2021/05/01 04:38:02;;;;;;;10.10;6.72;;;;;;;5.79;66.34;101199.13;5033048;28;20042;-49
2021/05/01 04:40:28;;;;;;;10.20;6.47;;;;;;;5.73;66.39;101203.09;5036517;28;20073;-46
2021/05/01 04:42:59;;;;;;;10.18;6.80;;;;;;;5.69;66.22;101191.06;5033217;28;20080;-48
2021/05/01 04:45:26;;;;;;;11.63;7.18;;;;;;;5.63;66.81;101193.09;5033090;28;20081;-48
2021/05/01 04:47:53;;;;;;;10.45;6.20;;;;;;;5.56;66.46;101198.16;5032190;28;20125;-47
2021/05/01 04:50:20;;;;;;;11.27;7.00;;;;;;;5.49;66.69;101193.06;5033189;28;20053;-46
2021/05/01 04:52:52;;;;;;;8.73;6.45;;;;;;;5.53;66.67;101193.28;5033004;28;20081;-46
2021/05/01 04:55:19;;;;;;;10.80;6.53;;;;;;;5.52;66.59;101195.19;5015122;28;20093;-46
2021/05/01 04:57:47;;;;;;;12.73;6.53;;;;;;;5.50;66.33;101200.19;5052271;28;20072;-47
2021/05/01 05:00:16;;;;;;;11.85;6.60;;;;;;;5.53;66.33;101205.06;5015210;28;20079;-44
2021/05/01 05:02:43;;;;;;;9.73;7.18;;;;;;;5.50;66.48;101202.13;5032030;28;20115;-49
2021/05/01 05:05:12;;;;;;;10.45;8.05;;;;;;;5.46;66.37;101201.88;5032487;28;20038;-48
2021/05/01 05:07:39;;;;;;;11.68;7.25;;;;;;;5.47;66.56;101200.78;5014809;28;20103;-46
2021/05/01 05:10:08;;;;;;;12.07;7.43;;;;;;;5.34;66.77;101203.47;5032333;28;20095;-48
2021/05/01 05:12:34;;;;;;;9.60;6.55;;;;;;;5.23;67.05;101208.31;5032709;28;20104;-50
2021/05/01 05:15:02;;;;;;;10.23;6.82;;;;;;;5.22;66.94;101203.94;5032362;28;20084;-45
2021/05/01 05:17:28;;;;;;;11.13;6.65;;;;;;;5.13;67.28;101205.72;5024303;28;20045;-43
2021/05/01 05:19:54;;;;;;;10.35;6.60;;;;;;;5.05;67.89;101203.66;5031828;28;20053;-46
2021/05/01 05:22:21;;;;;;;7.35;5.53;;;;;;;5.01;68.13;101208.09;5032423;28;20092;-46
2021/05/01 05:24:47;;;;;;;11.63;5.85;;;;;;;5.00;68.20;101206.47;5031985;28;20557;-46
2021/05/01 05:27:17;;;;;;;8.23;4.88;;;;;;;5.06;67.90;101212.69;5031168;28;20045;-44
2021/05/01 05:29:50;;;;;;;9.25;5.03;;;;;;;5.06;67.69;101202.53;5032712;28;20128;-44
2021/05/01 05:32:20;;;;;;;7.20;5.22;;;;;;;5.15;67.86;101208.97;5031796;28;20045;-44
2021/05/01 05:34:47;;;;;;;8.43;5.45;;;;;;;5.20;67.60;101206.16;5032269;28;20053;-45
2021/05/01 05:37:13;;;;;;;8.60;5.43;;;;;;;5.18;67.93;101210.31;5031755;28;20128;-44
2021/05/01 05:39:48;;;;;;;11.07;6.45;;;;;;;5.20;67.72;101205.34;5019598;28;20084;-47
2021/05/01 05:42:18;;;;;;;8.38;5.05;;;;;;;5.27;67.49;101208.53;5030445;28;20045;-47
2021/05/01 05:44:48;;;;;;;9.23;5.18;;;;;;;5.33;67.47;101210.06;5031991;28;20049;-48
2021/05/01 05:47:19;;;;;;;9.77;6.15;;;;;;;5.33;67.30;101216.38;5023546;28;20092;-45
2021/05/01 05:49:46;;;;;;;8.68;5.18;;;;;;;5.37;67.70;101227.59;5026232;28;20116;-46
2021/05/01 05:52:16;;;;;;;11.50;5.55;;;;;;;5.31;67.63;101223.28;5031666;28;20075;-44
2021/05/01 05:54:43;;;;;;;10.48;6.07;;;;;;;5.27;67.70;101223.06;5030701;28;20211;-44
2021/05/01 05:57:11;;;;;;;11.02;6.40;;;;;;;5.31;68.12;101231.53;5031305;28;20080;-44
2021/05/01 05:59:40;;;;;;;8.35;6.15;;;;;;;5.38;67.95;101232.78;5031933;28;20064;-45
2021/05/01 06:02:10;;;;;;;7.10;5.25;;;;;;;5.43;67.95;101238.19;5031675;28;20053;-45
2021/05/01 06:04:44;;;;;;;5.90;4.93;;;;;;;5.48;67.75;101235.34;5017334;28;20103;-49
2021/05/01 06:07:16;;;;;;;9.05;5.72;;;;;;;5.51;68.04;101239.44;5051627;28;20055;-44
2021/05/01 06:09:43;;;;;;;9.25;5.18;;;;;;;5.58;67.61;101237.13;5043206;28;20041;-45
2021/05/01 06:12:10;;;;;;;7.43;4.95;;;;;;;5.64;67.80;101243.34;5031098;28;20057;-48
2021/05/01 06:14:43;;;;;;;9.52;4.75;;;;;;;5.67;67.57;101231.75;5031925;28;20135;-48
2021/05/01 06:17:11;;;;;;;9.07;5.38;;;;;;;5.75;67.42;101240.13;5013445;28;20079;-43
2021/05/01 06:19:39;;;;;;;7.28;4.97;;;;;;;5.84;67.45;101243.81;5031781;28;20132;-46
2021/05/01 06:22:07;;;;;;;15.00;7.68;;;;;;;5.94;67.16;101248.34;5046200;28;20407;-45
2021/05/01 06:24:41;;;;;;;12.75;7.72;;;;;;;5.95;67.50;101255.47;5043992;28;20507;-46
2021/05/01 06:27:09;;;;;;;11.40;7.38;;;;;;;5.97;66.98;101258.75;5031197;28;20068;-44
2021/05/01 06:29:37;;;;;;;14.13;7.70;;;;;;;5.98;66.98;101266.66;5020761;28;20491;-49
2021/05/01 06:32:06;;;;;;;15.07;9.77;;;;;;;6.04;67.15;101264.66;5020515;28;20820;-45
2021/05/01 06:34:33;;;;;;;12.18;8.30;;;;;;;6.11;67.21;101265.09;5009494;28;20064;-48
2021/05/01 06:37:02;;;;;;;12.90;7.95;;;;;;;6.15;67.08;101268.84;5023618;28;20119;-46
2021/05/01 06:39:36;;;;;;;11.52;7.55;;;;;;;6.23;66.94;101275.56;5015206;28;20060;-50
2021/05/01 06:42:10;;;;;;;10.57;7.28;;;;;;;6.27;67.10;101268.38;5032050;28;20058;-45
2021/05/01 06:44:42;;;;;;;11.38;8.23;;;;;;;6.29;66.99;101277.13;5032437;28;20037;-48
2021/05/01 06:47:10;;;;;;;10.95;8.23;;;;;;;6.31;66.77;101272.94;5039849;28;20056;-45
2021/05/01 06:49:52;;;;;;;12.75;8.13;;;;;;;6.35;67.02;101275.91;5052747;28;20052;-48
2021/05/01 06:52:21;;;;;;;13.35;8.68;;;;;;;6.38;66.61;101278.84;5038032;28;20045;-47
2021/05/01 06:54:51;;;;;;;15.85;7.72;;;;;;;6.40;67.14;101278.56;5031911;28;20096;-44
2021/05/01 06:57:24;;;;;;;18.98;10.25;;;;;;;6.45;66.86;101282.03;5032875;28;20085;-45
2021/05/01 06:59:57;;;;;;;13.57;8.88;;;;;;;6.50;66.74;101279.19;5027572;28;20049;-45
2021/05/01 07:02:28;;;;;;;15.25;9.90;;;;;;;6.58;67.04;101281.22;5017619;28;20049;-44
2021/05/01 07:04:58;;;;;;;13.23;9.27;;;;;;;6.64;66.71;101263.50;5032568;28;20041;-47
2021/05/01 07:07:28;;;;;;;13.23;8.55;;;;;;;6.74;66.73;101274.28;5031888;28;20545;-49
2021/05/01 07:09:55;;;;;;;13.02;8.63;;;;;;;6.81;66.94;101273.03;5030779;28;20557;-46
2021/05/01 07:12:24;;;;;;;16.65;9.68;;;;;;;6.84;66.93;101275.19;5041134;28;20106;-50
2021/05/01 07:14:52;;;;;;;12.93;7.90;;;;;;;6.92;66.85;101271.72;5051829;28;20095;-44
2021/05/01 07:17:19;;;;;;;12.45;6.60;;;;;;;6.98;66.95;101274.06;5042868;28;20383;-47
2021/05/01 07:19:46;;;;;;;14.00;8.23;;;;;;;7.06;66.62;101278.03;5031289;28;20446;-44
2021/05/01 07:22:13;;;;;;;10.52;7.43;;;;;;;7.12;66.45;101276.78;5032392;28;20147;-51
2021/05/01 07:24:40;;;;;;;11.80;7.00;;;;;;;7.19;66.69;101268.91;5036175;28;20037;-46
2021/05/01 07:27:06;;;;;;;10.63;6.78;;;;;;;7.29;66.39;101274.19;5022456;28;20545;-49
2021/05/01 07:29:38;;;;;;;10.48;5.40;;;;;;;7.37;66.43;101276.22;5039971;28;20076;-45
2021/05/01 07:32:07;;;;;;;6.80;3.67;;;;;;;7.44;66.31;101276.59;5031528;28;20045;-48
2021/05/01 07:34:35;;;;;;;9.45;4.10;;;;;;;7.51;65.87;101281.69;5013753;28;20059;-49
2021/05/01 07:37:09;;;;;;;6.15;3.47;;;;;;;7.58;65.58;101280.13;5031905;28;20076;-47
2021/05/01 07:39:39;;;;;;;8.85;3.92;;;;;;;7.70;65.59;101285.06;5031849;28;20459;-49
2021/05/01 07:42:08;;;;;;;5.63;2.95;;;;;;;7.81;64.89;101290.00;5030604;28;20055;-49
2021/05/01 07:44:34;;;;;;;6.32;2.95;;;;;;;7.94;65.43;101296.59;5031570;28;20045;-48
2021/05/01 07:47:04;;;;;;;6.05;3.20;;;;;;;8.06;65.59;101282.22;5032610;28;20050;-46
2021/05/01 07:49:31;;;;;;;6.55;2.95;;;;;;;8.22;65.84;101297.25;5013711;28;20080;-51
2021/05/01 07:52:00;;;;;;;6.85;3.10;;;;;;;8.37;65.50;101289.41;5029809;28;20045;-47
2021/05/01 07:54:26;;;;;;;6.50;3.13;;;;;;;8.53;66.46;101289.81;5032328;28;20108;-46
2021/05/01 07:56:55;;;;;;;9.13;4.30;;;;;;;8.65;66.37;101291.97;5013653;28;20506;-47
2021/05/01 07:59:21;;;;;;;75.95;45.17;;;;;;;8.79;66.88;101299.00;5030917;28;20057;-46
2021/05/01 08:01:50;;;;;;;130.02;86.25;;;;;;;8.92;67.08;101287.00;5029372;28;20037;-46
2021/05/01 08:04:17;;;;;;;122.70;70.32;;;;;;;9.13;67.05;101301.84;5031844;28;20056;-48
2021/05/01 08:06:43;;;;;;;14.70;9.27;;;;;;;9.34;66.58;101299.31;5030988;28;20049;-47
2021/05/01 08:09:10;;;;;;;12.57;7.55;;;;;;;9.58;66.74;101294.09;5031433;28;20145;-46
2021/05/01 08:11:38;;;;;;;9.85;6.57;;;;;;;9.95;67.78;101300.94;5029249;28;20319;-49
2021/05/01 08:14:05;;;;;;;10.98;6.40;;;;;;;10.39;68.12;101295.00;5030972;28;20085;-48
2021/05/01 08:16:31;;;;;;;14.52;6.60;;;;;;;10.82;68.18;101285.69;5030624;28;20077;-48
2021/05/01 08:19:00;;;;;;;11.70;6.10;;;;;;;11.31;67.50;101292.38;5032760;28;20045;-49
2021/05/01 08:21:28;;;;;;;10.65;5.43;;;;;;;11.86;65.67;101294.94;5030359;28;20045;-48
2021/05/01 08:23:58;;;;;;;9.00;5.78;;;;;;;12.37;63.83;101297.16;5030776;28;20041;-48
2021/05/01 08:26:24;;;;;;;8.63;4.93;;;;;;;12.94;62.30;101304.66;5050479;28;20472;-50
2021/05/01 08:28:52;;;;;;;8.85;5.22;;;;;;;13.64;60.62;101301.31;5050075;28;20462;-47
2021/05/01 08:31:19;;;;;;;8.27;5.30;;;;;;;14.26;59.17;101299.91;5030073;28;20495;-48
2021/05/01 08:33:46;;;;;;;7.18;5.43;;;;;;;14.76;57.51;101297.28;5032142;28;20046;-47
2021/05/01 08:36:13;;;;;;;8.30;4.10;;;;;;;15.32;56.03;101288.66;5029708;28;20045;-47
2021/05/01 08:38:40;;;;;;;11.65;4.60;;;;;;;15.81;54.64;101293.38;5030073;28;20144;-47
2021/05/01 08:41:07;;;;;;;9.07;4.07;;;;;;;16.16;53.41;101298.06;5031591;28;20104;-47
2021/05/01 08:43:34;;;;;;;9.30;4.25;;;;;;;16.02;52.28;101292.22;5030071;28;20100;-49
2021/05/01 08:46:11;;;;;;;6.45;4.75;;;;;;;16.05;51.51;101285.84;5036675;28;20163;-48
2021/05/01 08:48:41;;;;;;;7.45;4.18;;;;;;;16.20;50.73;101294.13;5035549;28;20498;-48
2021/05/01 08:51:08;;;;;;;10.45;4.90;;;;;;;16.62;49.82;101293.34;5030035;28;20029;-45
2021/05/01 08:53:34;;;;;;;6.07;3.92;;;;;;;16.89;48.88;101278.25;5029282;28;20056;-52
2021/05/01 08:56:00;;;;;;;12.73;3.83;;;;;;;17.16;48.45;101282.66;5029670;28;20144;-49
2021/05/01 08:58:27;;;;;;;5.65;3.42;;;;;;;17.58;47.79;101286.09;5028606;28;20136;-51
2021/05/01 09:00:56;;;;;;;5.13;3.55;;;;;;;17.87;47.17;101275.28;5032664;28;20103;-49
2021/05/01 09:03:23;;;;;;;8.40;3.92;;;;;;;17.95;46.25;101279.78;5032564;28;20038;-50
2021/05/01 09:05:51;;;;;;;7.78;2.45;;;;;;;17.93;45.55;101279.31;5026313;28;20069;-52
2021/05/01 09:08:19;;;;;;;6.20;2.90;;;;;;;18.10;44.83;101282.34;5026364;28;20077;-48
2021/05/01 09:10:49;;;;;;;4.25;2.42;;;;;;;18.37;44.33;101277.44;5030494;28;20136;-47
2021/05/01 09:13:23;;;;;;;3.80;2.42;;;;;;;18.55;43.79;101278.44;5030083;28;20053;-47
2021/05/01 09:16:02;;;;;;;3.72;2.55;;;;;;;18.74;42.61;101271.81;5029851;28;20533;-52
2021/05/01 09:18:55;;;;;;;7.10;2.45;;;;;;;18.87;41.86;101270.31;5029936;28;20649;-55
2021/05/01 09:21:27;;;;;;;3.00;1.73;;;;;;;18.97;42.45;101272.38;5025367;28;20044;-49
2021/05/01 09:24:20;;;;;;;3.67;2.45;;;;;;;18.65;42.07;101274.94;5017545;28;20518;-49
2021/05/01 09:26:46;;;;;;;10.63;2.60;;;;;;;17.85;42.05;101277.63;5021949;28;20045;-47
2021/05/01 09:29:30;;;;;;;5.40;2.03;;;;;;;17.00;41.72;101282.00;5029830;28;20051;-47
2021/05/01 09:32:05;;;;;;;4.85;2.53;;;;;;;17.23;41.87;101277.19;5028294;28;20057;-46
2021/05/01 09:34:48;;;;;;;5.38;1.90;;;;;;;17.66;41.34;101275.00;5029107;28;20053;-49
2021/05/01 09:37:18;;;;;;;2.15;1.95;;;;;;;17.77;41.46;101271.13;5029397;28;20131;-46
2021/05/01 09:39:52;;;;;;;4.80;2.55;;;;;;;18.06;40.17;101278.69;5028899;28;20041;-46
2021/05/01 09:42:21;;;;;;;2.78;1.83;;;;;;;18.53;40.85;101275.19;5011192;28;20089;-49
2021/05/01 09:45:16;;;;;;;2.33;2.00;;;;;;;19.10;39.64;101270.06;5028043;28;20471;-47
2021/05/01 09:47:49;;;;;;;3.20;1.88;;;;;;;19.27;38.67;101264.56;5022050;28;20037;-49
2021/05/01 09:50:23;;;;;;;3.72;2.03;;;;;;;19.09;39.25;101268.47;5029230;28;20049;-48
2021/05/01 09:53:01;;;;;;;3.22;1.85;;;;;;;18.52;38.60;101276.41;5028823;28;20132;-49
2021/05/01 09:55:56;;;;;;;3.08;2.38;;;;;;;17.64;38.48;101267.78;5029080;28;20136;-47
2021/05/01 09:58:30;;;;;;;4.97;2.30;;;;;;;16.75;39.05;101275.22;5026348;28;20053;-53
2021/05/01 10:01:15;;;;;;;4.22;1.98;;;;;;;16.69;39.79;101269.13;5028403;28;20037;-50
2021/05/01 10:03:42;;;;;;;3.35;1.70;;;;;;;17.03;40.06;101264.47;5027910;28;20048;-47
2021/05/01 10:06:12;;;;;;;2.10;1.67;;;;;;;17.38;39.42;101269.78;5010071;28;20069;-52
2021/05/01 10:08:42;;;;;;;11.25;3.92;;;;;;;17.20;39.41;101272.34;5029294;28;20141;-47
2021/05/01 10:11:14;;;;;;;6.93;2.42;;;;;;;16.70;39.17;101267.94;5028776;28;20065;-46
2021/05/01 10:13:53;;;;;;;3.33;1.48;;;;;;;16.10;39.16;101264.03;5020166;28;20588;-48
2021/05/01 10:16:22;;;;;;;4.30;2.78;;;;;;;15.47;39.59;101276.66;5028663;28;20096;-46
2021/05/01 10:19:12;;;;;;;5.32;1.85;;;;;;;14.90;39.67;101264.19;5028677;28;20049;-51
2021/05/01 10:21:44;;;;;;;3.38;1.95;;;;;;;14.46;40.56;101276.59;5028636;28;20140;-47
2021/05/01 10:24:11;;;;;;;3.63;1.95;;;;;;;14.24;40.86;101272.44;5028460;28;20462;-49
2021/05/01 10:26:43;;;;;;;3.72;1.50;;;;;;;13.99;41.21;101273.72;5032311;28;20072;-48
2021/05/01 10:29:22;;;;;;;;;;;;;;;13.60;41.41;101278.16;5028819;28;20041;-49
2021/05/01 10:31:56;;;;;;;3.47;1.45;;;;;;;13.40;41.80;101271.59;5011465;28;19929;-46
2021/05/01 10:34:26;;;;;;;4.40;2.05;;;;;;;13.23;42.10;101277.44;5025222;28;20095;-50
2021/05/01 10:37:00;;;;;;;3.97;1.98;;;;;;;13.13;42.96;101266.00;5028394;28;20046;-49
2021/05/01 10:39:26;;;;;;;4.30;1.75;;;;;;;12.96;43.05;101266.19;5027797;28;20030;-53
2021/05/01 10:41:55;;;;;;;6.38;2.25;;;;;;;12.91;43.20;101272.00;5029821;28;20057;-50
2021/05/01 10:44:23;;;;;;;8.50;2.30;;;;;;;12.93;43.37;101267.69;5014175;28;20483;-50
2021/05/01 10:46:49;;;;;;;3.38;2.33;;;;;;;12.98;43.68;101267.47;5034064;28;20497;-48
2021/05/01 10:49:16;;;;;;;7.75;2.30;;;;;;;12.99;44.09;101271.88;5003951;28;20046;-46
2021/05/01 10:51:47;;;;;;;4.43;2.08;;;;;;;13.19;44.15;101268.16;5010970;28;20119;-56
2021/05/01 10:54:21;;;;;;;2.83;2.05;;;;;;;13.29;44.72;101258.53;5010719;28;20069;-51
2021/05/01 10:56:54;;;;;;;3.95;2.25;;;;;;;13.73;44.12;101276.13;5028605;28;20390;-47
2021/05/01 10:59:30;;;;;;;6.28;2.03;;;;;;;14.24;43.87;101274.41;5027944;28;20057;-49
2021/05/01 11:02:00;;;;;;;3.50;1.75;;;;;;;14.61;43.24;101262.66;5020424;28;20117;-50
2021/05/01 11:04:31;;;;;;;4.15;1.70;;;;;;;14.90;42.32;101263.38;5021084;28;20045;-47
2021/05/01 11:06:58;;;;;;;3.17;1.40;;;;;;;15.08;42.03;101259.84;5026119;28;20050;-50
2021/05/01 11:09:47;;;;;;;4.43;1.05;;;;;;;15.19;38.78;101260.91;5009298;28;20115;-51
2021/05/01 11:12:16;;;;;;;2.17;1.58;;;;;;;15.21;41.23;101257.72;5027683;28;20129;-47
2021/05/01 11:14:59;;;;;;;5.32;1.88;;;;;;;15.24;40.69;101257.81;5027215;28;20120;-49
2021/05/01 11:17:31;;;;;;;2.95;1.63;;;;;;;15.05;40.76;101263.34;5027024;28;20037;-47
2021/05/01 11:20:02;;;;;;;1.80;1.40;;;;;;;14.63;39.88;101259.53;5027792;28;20466;-49
2021/05/01 11:22:31;;;;;;;2.55;0.93;;;;;;;14.34;40.35;101260.78;5028626;28;20041;-49
2021/05/01 11:24:58;;;;;;;3.25;1.25;;;;;;;14.28;40.37;101269.72;5027733;28;20068;-48
2021/05/01 11:27:25;;;;;;;2.58;0.80;;;;;;;14.18;40.26;101271.06;5029942;28;20372;-49
2021/05/01 11:29:51;;;;;;;8.18;1.30;;;;;;;14.15;40.55;101265.38;5030636;28;20042;-46
2021/05/01 11:32:18;;;;;;;4.50;2.00;;;;;;;14.04;40.29;101268.69;5029265;28;20479;-48
2021/05/01 11:34:51;;;;;;;2.30;0.93;;;;;;;13.96;40.44;101280.78;5030356;28;20060;-50
2021/05/01 11:37:18;;;;;;;;;;;;;;;13.89;40.54;101274.22;5032060;28;20140;-47